TKQ weather

Kigoma Airport
Kigoma, Xigoma Region, Tanzania

Public forecast

Using degrees Celsius for public forecast. Weather courtesy of forecast.io.

Current aviation weather report (METAR) for Kigoma Airport

Retrieved 2019/10/23 10:00 UTC (58 seconds ago):

HTKA 231000Z 33012KT 9999 FEW023 FEW024CB BKN090 26/19 Q1016

Aviation forecast (TAF) for Kigoma Airport

Forecast is more than 12 hours old.

Retrieved 2019/04/07 12:27 UTC (7 months ago):

TAF HTKA 071120Z 0712/0812 12013KT 9999 FEW026 FEW027CB BECMG 0714/0716 00000KT